Qtas de Villa Blanca, Puerto Rico
Current Conditions -  °F | °C
As of 7:56 AM on Tuesday 27 Jan 2015 (Local Time) from TJSJ Reporting Station
Scattered Clouds Scattered Clouds  
Wind Chill: 77°   Ceiling: Unl
Heat Index: 78°   Visibility: 10mi
Dew Point: 73°   Wind: 3mph
Humidity: 88%   Direction: NA
Pressure: 30"   Gusts: NA
Location:  18.2361°N, 66.0369°W
Report Text: TJSJ 271156Z VRB03KT 10SM FEW028 SCT060 25/23 A3000 RMK AO2 SLP158 T02500228 10256 20233 53017
Loading
Personal Weather Stations






























Interactive Weather Map New forecast layout! Learn more

10-Day Weather Forecast

Advertisements
Track Severe Weather on mobile